Time;durP1;ratioP1;P1;durP2;ratioP2;P2;SDS_P1;SDS_P2;PMS_P1;PMS_P2;Temp;Humidity;BMP_temperature;BMP_pressure;BME280_temperature;BME280_humidity;BME280_pressure;Samples;Min_cycle;Max_cycle;Signal;HPM_P1;HPM_P2
2022/09/18 00:00:07;;;;;;;3.15;1.30;;;;;;;;;;4936085;28;20031;-64
2022/09/18 00:02:34;;;;;;;5.53;1.35;;;;;;;;;;4927004;28;20055;-64
2022/09/18 00:05:01;;;;;;;6.78;1.73;;;;;;;;;;4940285;28;20040;-64
2022/09/18 00:07:27;;;;;;;5.22;1.85;;;;;;;;;;4937478;28;20105;-64
2022/09/18 00:09:54;;;;;;;4.60;1.65;;;;;;;;;;4938044;28;20418;-64
2022/09/18 00:12:21;;;;;;;6.22;1.80;;;;;;;;;;4939476;28;20656;-64
2022/09/18 20:53:45;;;;;;;3.47;0.90;;;;;;;;;;5042391;27;20425;-64
2022/09/18 20:56:13;;;;;;;4.47;0.80;;;;;;;;;;5031620;28;20105;-67
2022/09/18 20:58:42;;;;;;;6.75;0.90;;;;;;;;;;5029959;28;20162;-64
2022/09/18 21:01:10;;;;;;;3.33;0.85;;;;;;;;;;5012398;28;20509;-64
2022/09/18 21:03:37;;;;;;;3.88;0.90;;;;;;;;;;5007384;28;20528;-64
2022/09/18 21:06:09;;;;;;;2.45;0.80;;;;;;;;;;5009763;28;20049;-64
2022/09/18 21:08:45;;;;;;;3.63;1.20;;;;;;;;;;5003216;28;21060;-64
2022/09/18 21:11:22;;;;;;;6.88;1.30;;;;;;;;;;5013923;28;20046;-65
2022/09/18 21:13:51;;;;;;;5.22;1.13;;;;;;;;;;5011753;28;20053;-63
2022/09/18 21:16:19;;;;;;;4.03;1.00;;;;;;;;;;5024557;28;20041;-64
2022/09/18 21:18:46;;;;;;;6.28;0.90;;;;;;;;;;5011554;28;20184;-64
2022/09/18 21:21:14;;;;;;;3.42;1.00;;;;;;;;;;5013560;28;20425;-64
2022/09/18 21:23:55;;;;;;;7.50;2.53;;;;;;;;;;5013104;28;20044;-63
2022/09/18 21:26:32;;;;;;;6.32;1.20;;;;;;;;;;5019692;28;20508;-64
2022/09/18 21:29:12;;;;;;;3.95;1.00;;;;;;;;;;5014861;28;20125;-65
2022/09/18 21:31:43;;;;;;;4.50;0.98;;;;;;;;;;5013413;28;20052;-66
2022/09/18 21:34:14;;;;;;;3.72;1.08;;;;;;;;;;5015597;28;20092;-68
2022/09/18 21:36:44;;;;;;;4.97;1.02;;;;;;;;;;5019113;28;20034;-69
2022/09/18 21:39:14;;;;;;;3.22;0.80;;;;;;;;;;4999819;28;20073;-68
2022/09/18 21:41:44;;;;;;;7.65;1.05;;;;;;;;;;5015828;28;20116;-67
2022/09/18 21:44:16;;;;;;;5.65;1.00;;;;;;;;;;5014881;28;20033;-66
2022/09/18 21:46:44;;;;;;;3.88;1.08;;;;;;;;;;5013189;28;20036;-70
2022/09/18 21:49:13;;;;;;;4.55;0.73;;;;;;;;;;5015053;28;20052;-67
2022/09/18 21:51:40;;;;;;;4.18;0.93;;;;;;;;;;5011483;28;20111;-67
2022/09/18 21:54:13;;;;;;;6.05;0.80;;;;;;;;;;5011187;28;20170;-67
2022/09/18 21:56:39;;;;;;;;;;;;;;;;;;5011009;28;20107;-69
2022/09/18 21:59:08;;;;;;;2.55;0.98;;;;;;;;;;5011768;28;19917;-68
2022/09/18 22:01:36;;;;;;;6.68;0.95;;;;;;;;;;5011457;28;21957;-67
2022/09/18 22:04:06;;;;;;;4.78;0.90;;;;;;;;;;5003833;28;20052;-66
2022/09/18 22:06:39;;;;;;;3.58;1.00;;;;;;;;;;4997271;28;20077;-67
2022/09/18 22:09:10;;;;;;;5.65;1.00;;;;;;;;;;4999285;28;20121;-67
2022/09/18 22:11:37;;;;;;;4.47;1.30;;;;;;;;;;4997316;28;20580;-67
2022/09/18 22:14:05;;;;;;;3.95;1.00;;;;;;;;;;4999787;28;20052;-68
2022/09/18 22:16:32;;;;;;;3.08;1.00;;;;;;;;;;4998891;28;20038;-66
2022/09/18 22:18:59;;;;;;;6.38;1.08;;;;;;;;;;4999514;28;20042;-67
2022/09/18 22:21:27;;;;;;;6.32;1.20;;;;;;;;;;4999387;28;20077;-67
2022/09/18 22:23:58;;;;;;;8.48;1.30;;;;;;;;;;4976871;28;20038;-67
2022/09/18 22:26:25;;;;;;;4.43;1.10;;;;;;;;;;4997667;28;20046;-67
2022/09/18 22:28:55;;;;;;;6.22;1.33;;;;;;;;;;4998603;28;20037;-66
2022/09/18 22:31:24;;;;;;;3.70;1.40;;;;;;;;;;4997665;28;20668;-68
2022/09/18 22:33:55;;;;;;;6.03;1.40;;;;;;;;;;4995116;28;20049;-67
2022/09/18 22:36:22;;;;;;;5.78;1.55;;;;;;;;;;5000113;28;20180;-67
2022/09/18 22:38:48;;;;;;;5.55;1.30;;;;;;;;;;5005642;28;20140;-68
2022/09/18 22:41:15;;;;;;;6.03;1.27;;;;;;;;;;4999097;28;20037;-66
2022/09/18 22:43:41;;;;;;;3.30;1.10;;;;;;;;;;4999009;28;20403;-68
2022/09/18 22:46:12;;;;;;;4.25;1.40;;;;;;;;;;4998057;28;20041;-68
2022/09/18 22:48:39;;;;;;;3.63;1.10;;;;;;;;;;4997716;28;20062;-67
2022/09/18 22:51:32;;;;;;;4.28;1.30;;;;;;;;;;4999264;28;20030;-67
2022/09/18 22:54:06;;;;;;;5.22;0.98;;;;;;;;;;4996324;28;20090;-66
2022/09/18 22:56:34;;;;;;;6.47;1.10;;;;;;;;;;4998488;28;20111;-67
2022/09/18 22:59:01;;;;;;;4.65;0.93;;;;;;;;;;4997675;28;20045;-67
2022/09/18 23:01:30;;;;;;;4.20;1.10;;;;;;;;;;4997706;28;20034;-67
2022/09/18 23:03:58;;;;;;;4.05;1.02;;;;;;;;;;4997034;28;20044;-67
2022/09/18 23:06:25;;;;;;;4.72;1.60;;;;;;;;;;4997389;28;20042;-66
2022/09/18 23:08:53;;;;;;;4.53;1.30;;;;;;;;;;4997665;28;20101;-65
2022/09/18 23:11:21;;;;;;;9.18;1.50;;;;;;;;;;4997831;28;20066;-67
2022/09/18 23:13:49;;;;;;;4.30;0.90;;;;;;;;;;4996461;28;20037;-68
2022/09/18 23:16:16;;;;;;;10.38;1.27;;;;;;;;;;4995017;28;20034;-68
2022/09/18 23:18:47;;;;;;;6.47;1.30;;;;;;;;;;4995883;28;20046;-67
2022/09/18 23:21:13;;;;;;;4.80;1.25;;;;;;;;;;5011396;28;20369;-66
2022/09/18 23:23:41;;;;;;;3.03;0.88;;;;;;;;;;4995247;28;20030;-66
2022/09/18 23:26:11;;;;;;;6.05;1.20;;;;;;;;;;4997179;28;20729;-66
2022/09/18 23:28:39;;;;;;;4.90;1.38;;;;;;;;;;4995275;28;20558;-66
2022/09/18 23:31:07;;;;;;;9.30;1.30;;;;;;;;;;4996012;28;20213;-67
2022/09/18 23:33:34;;;;;;;5.80;1.42;;;;;;;;;;4994470;28;20046;-66
2022/09/18 23:36:04;;;;;;;5.50;1.20;;;;;;;;;;4994862;28;20128;-66
2022/09/18 23:38:31;;;;;;;8.45;1.60;;;;;;;;;;4995497;28;20046;-67
2022/09/18 23:41:01;;;;;;;4.25;1.20;;;;;;;;;;4997917;28;20042;-66
2022/09/18 23:43:28;;;;;;;3.17;1.08;;;;;;;;;;4996802;28;20525;-65
2022/09/18 23:45:58;;;;;;;10.35;1.80;;;;;;;;;;4996716;28;20053;-66
2022/09/18 23:48:26;;;;;;;7.55;1.60;;;;;;;;;;4995204;28;20046;-67
2022/09/18 23:50:52;;;;;;;6.55;1.33;;;;;;;;;;4997179;28;20160;-68
2022/09/18 23:53:20;;;;;;;5.32;1.10;;;;;;;;;;4995643;28;20049;-68
2022/09/18 23:55:47;;;;;;;3.42;0.93;;;;;;;;;;5008639;28;20041;-67
2022/09/18 23:58:14;;;;;;;8.88;2.67;;;;;;;;;;4995631;28;20620;-68
